createdAt,value
2022-08-12T00:01:12.344Z,2.60
2022-08-12T00:03:58.172Z,3.28
2022-08-12T00:06:46.091Z,3.35
2022-08-12T00:09:32.575Z,2.83
2022-08-12T00:12:18.152Z,3.33
2022-08-12T00:15:04.466Z,2.92
2022-08-12T00:17:50.583Z,2.42
2022-08-12T00:20:36.289Z,3.13
2022-08-12T00:23:23.874Z,3.20
2022-08-12T00:26:23.696Z,3.15
2022-08-12T00:29:12.042Z,2.67
2022-08-12T00:32:00.016Z,2.85
2022-08-12T00:34:49.081Z,3.03
2022-08-12T00:37:36.437Z,3.85
2022-08-12T00:40:28.639Z,3.10
2022-08-12T00:42:57.390Z,3.60
2022-08-12T00:45:25.055Z,3.22
2022-08-12T00:47:53.994Z,3.42
2022-08-12T00:50:22.943Z,3.25
2022-08-12T00:52:52.765Z,3.25
2022-08-12T00:55:21.452Z,3.15
2022-08-12T00:57:53.018Z,3.92
2022-08-12T01:00:22.998Z,3.50
2022-08-12T01:02:53.288Z,3.22
2022-08-12T01:05:41.787Z,3.88
2022-08-12T01:08:28.141Z,3.22
2022-08-12T01:11:15.576Z,3.15
2022-08-12T01:13:48.492Z,3.20
2022-08-12T01:16:18.252Z,3.28
2022-08-12T01:18:45.822Z,2.92
2022-08-12T01:21:45.672Z,3.20
2022-08-12T01:24:30.277Z,3.58
2022-08-12T01:27:01.350Z,3.17
2022-08-12T01:29:33.156Z,3.13
2022-08-12T01:32:06.371Z,3.47
2022-08-12T01:34:41.491Z,3.72
2022-08-12T01:37:10.160Z,3.42
2022-08-12T01:40:34.312Z,3.55
2022-08-12T01:42:41.858Z,3.58
2022-08-12T01:45:10.083Z,4.00
2022-08-12T01:48:03.880Z,3.72
2022-08-12T01:50:36.919Z,3.53
2022-08-12T01:53:12.354Z,3.60
2022-08-12T01:55:46.714Z,3.72
2022-08-12T01:58:28.889Z,3.53
2022-08-12T02:01:05.016Z,3.42
2022-08-12T02:04:05.632Z,3.85
2022-08-12T02:06:54.700Z,3.95
2022-08-12T02:09:56.871Z,4.22
2022-08-12T02:12:38.993Z,3.92
2022-08-12T02:15:25.998Z,3.80
2022-08-12T02:18:12.737Z,3.50
2022-08-12T02:21:13.818Z,3.40
2022-08-12T02:23:42.117Z,3.42
2022-08-12T02:26:11.599Z,3.35
2022-08-12T02:28:38.915Z,4.13
2022-08-12T02:31:09.024Z,4.57
2022-08-12T02:33:37.941Z,3.30
2022-08-12T02:36:06.198Z,3.90
2022-08-12T02:38:34.022Z,3.85
2022-08-12T02:41:05.479Z,3.75
2022-08-12T02:43:50.291Z,3.70
2022-08-12T02:46:31.078Z,3.40
2022-08-12T02:49:00.894Z,3.22
2022-08-12T02:51:33.971Z,3.92
2022-08-12T02:54:07.437Z,3.78
2022-08-12T02:56:50.651Z,3.83
2022-08-12T02:59:22.126Z,4.28
2022-08-12T03:01:53.382Z,4.10
2022-08-12T03:04:30.896Z,3.58
2022-08-12T03:07:55.772Z,3.72
2022-08-12T03:10:17.950Z,3.88
2022-08-12T03:12:57.667Z,3.53
2022-08-12T03:15:24.950Z,3.10
2022-08-12T03:18:24.977Z,3.40
2022-08-12T03:20:55.162Z,3.50
2022-08-12T03:23:29.107Z,4.63
2022-08-12T03:26:00.888Z,3.78
2022-08-12T03:28:49.604Z,4.30
2022-08-12T03:31:24.800Z,3.65
2022-08-12T03:34:02.003Z,3.75
2022-08-12T03:36:35.095Z,4.15
2022-08-12T03:39:36.084Z,3.78
2022-08-12T03:42:28.384Z,3.65
2022-08-12T03:45:50.044Z,3.03
2022-08-12T03:48:38.680Z,3.80
2022-08-12T03:51:25.271Z,3.45
2022-08-12T03:54:11.933Z,4.38
2022-08-12T03:56:58.216Z,3.42
2022-08-12T03:59:43.926Z,3.67
2022-08-12T04:02:17.036Z,3.28
2022-08-12T04:04:45.722Z,3.35
2022-08-12T04:07:14.517Z,3.38
2022-08-12T04:09:45.070Z,3.42
2022-08-12T04:12:32.680Z,3.40
2022-08-12T04:15:02.035Z,3.72
2022-08-12T04:17:30.152Z,3.75
2022-08-12T04:19:59.004Z,3.67
2022-08-12T04:22:30.497Z,3.65
2022-08-12T04:25:02.883Z,3.28
2022-08-12T04:27:32.095Z,4.40
2022-08-12T04:30:29.582Z,3.58
2022-08-12T04:32:52.299Z,3.55
2022-08-12T04:35:21.577Z,3.88
2022-08-12T04:37:57.922Z,3.38
2022-08-12T04:40:35.496Z,3.50
2022-08-12T04:43:02.818Z,3.42
2022-08-12T04:45:32.598Z,3.95
2022-08-12T04:48:02.143Z,3.65
2022-08-12T04:50:35.819Z,3.80
2022-08-12T04:53:13.097Z,3.22
2022-08-12T04:55:42.804Z,3.80
2022-08-12T04:58:10.451Z,3.50
2022-08-12T05:00:38.362Z,3.55
2022-08-12T05:03:08.975Z,4.00
2022-08-12T05:05:37.923Z,3.63
2022-08-12T05:08:10.916Z,3.55
2022-08-12T05:10:38.186Z,3.75
2022-08-12T05:13:28.033Z,3.40
2022-08-12T05:16:04.667Z,3.75
2022-08-12T05:18:39.378Z,3.20
2022-08-12T05:21:08.412Z,4.05
2022-08-12T05:23:39.681Z,3.50
2022-08-12T05:26:07.177Z,3.88
2022-08-12T05:28:34.681Z,4.03
2022-08-12T05:31:02.222Z,3.78
2022-08-12T05:33:41.073Z,3.72
2022-08-12T05:36:12.724Z,4.07
2022-08-12T05:38:56.214Z,3.85
2022-08-12T05:41:29.146Z,4.13
2022-08-12T05:43:57.626Z,3.60
2022-08-12T05:46:25.786Z,3.63
2022-08-12T05:48:54.793Z,3.50
2022-08-12T05:51:40.628Z,4.00
2022-08-12T05:54:09.501Z,3.03
2022-08-12T05:56:41.764Z,3.47
2022-08-12T05:59:11.466Z,3.83
2022-08-12T06:02:09.423Z,4.05
2022-08-12T06:04:29.555Z,4.32
2022-08-12T06:06:56.836Z,3.58
2022-08-12T06:09:26.436Z,3.85
2022-08-12T06:12:05.002Z,4.22
2022-08-12T06:14:37.223Z,3.70
2022-08-12T06:17:09.069Z,3.67
2022-08-12T06:20:26.001Z,3.97
2022-08-12T06:22:24.464Z,4.15
2022-08-12T06:24:53.499Z,3.47
2022-08-12T06:27:21.712Z,3.40
2022-08-12T06:30:09.844Z,4.10
2022-08-12T06:32:51.881Z,3.65
2022-08-12T06:35:47.520Z,3.63
2022-08-12T06:38:20.768Z,4.60
2022-08-12T06:41:13.552Z,4.80
2022-08-12T06:44:05.938Z,4.32
2022-08-12T06:46:31.209Z,3.50
2022-08-12T06:48:59.616Z,3.63
2022-08-12T06:51:30.330Z,4.60
2022-08-12T06:53:59.944Z,4.60
2022-08-12T06:56:45.938Z,4.18
2022-08-12T06:59:15.825Z,4.15
2022-08-12T07:01:51.151Z,4.20
2022-08-12T07:07:10.066Z,3.97
2022-08-12T07:10:04.267Z,4.00
2022-08-12T07:12:28.055Z,4.97
2022-08-12T07:14:59.874Z,3.72
2022-08-12T07:17:31.662Z,3.72
2022-08-12T07:20:03.934Z,4.00
2022-08-12T07:22:33.189Z,3.67
2022-08-12T07:25:21.873Z,3.90
2022-08-12T07:27:54.176Z,3.92
2022-08-12T07:30:23.161Z,3.92
2022-08-12T07:32:52.522Z,4.22
2022-08-12T07:35:20.665Z,3.20
2022-08-12T07:37:50.279Z,4.07
2022-08-12T07:40:18.872Z,3.58
2022-08-12T07:42:49.652Z,4.78
2022-08-12T07:45:18.138Z,3.67
2022-08-12T07:47:45.359Z,4.28
2022-08-12T07:50:16.856Z,4.82
2022-08-12T07:52:48.224Z,4.80
2022-08-12T07:55:18.209Z,3.97
2022-08-12T07:57:55.996Z,3.78
2022-08-12T08:00:23.808Z,3.80
2022-08-12T08:02:53.444Z,3.25
2022-08-12T08:05:28.223Z,4.07
2022-08-12T08:08:01.836Z,3.60
2022-08-12T08:10:30.628Z,4.55
2022-08-12T08:12:59.504Z,3.47
2022-08-12T08:15:58.852Z,4.93
2022-08-12T08:18:26.593Z,2.78
2022-08-12T08:20:56.389Z,4.57
2022-08-12T08:23:43.714Z,3.30
2022-08-12T08:26:15.597Z,2.92
2022-08-12T08:28:43.757Z,3.47
2022-08-12T08:31:12.867Z,4.13
2022-08-12T08:34:05.128Z,3.28
2022-08-12T08:36:29.280Z,3.03
2022-08-12T08:38:58.171Z,3.83
2022-08-12T08:42:19.112Z,4.35
2022-08-12T08:44:38.266Z,4.30
2022-08-12T08:47:10.879Z,4.68
2022-08-12T08:49:39.271Z,4.88
2022-08-12T08:52:08.892Z,6.40
2022-08-12T08:54:37.831Z,5.03
2022-08-12T08:57:08.331Z,6.32
2022-08-12T08:59:35.893Z,6.32
2022-08-12T09:02:03.622Z,5.03
2022-08-12T09:05:12.985Z,4.30
2022-08-12T09:07:51.971Z,5.88
2022-08-12T09:10:32.437Z,3.28
2022-08-12T09:13:23.369Z,3.38
2022-08-12T09:15:57.556Z,3.58
2022-08-12T09:18:33.391Z,2.90
2022-08-12T09:21:01.922Z,2.80
2022-08-12T09:23:59.872Z,3.03
2022-08-12T09:26:19.199Z,3.40
2022-08-12T09:32:03.473Z,2.90
2022-08-12T09:34:26.340Z,2.90
2022-08-12T09:37:00.676Z,2.75
2022-08-12T09:40:01.762Z,3.72
2022-08-12T09:42:43.373Z,3.47
2022-08-12T09:45:23.524Z,2.78
2022-08-12T09:48:09.747Z,3.33
2022-08-12T09:50:36.897Z,2.70
2022-08-12T09:53:15.609Z,2.67
2022-08-12T09:56:05.284Z,2.97
2022-08-12T09:58:57.817Z,3.77
2022-08-12T10:01:24.627Z,2.63
2022-08-12T10:04:04.570Z,2.90
2022-08-12T10:06:36.172Z,2.90
2022-08-12T10:09:08.667Z,3.33
2022-08-12T10:12:11.752Z,3.15
2022-08-12T10:14:50.246Z,3.53
2022-08-12T10:17:22.942Z,3.13
2022-08-12T10:19:52.896Z,2.95
2022-08-12T10:22:39.141Z,2.85
2022-08-12T10:26:36.695Z,2.70
2022-08-12T10:28:31.251Z,2.88
2022-08-12T10:30:59.601Z,3.25
2022-08-12T10:33:31.958Z,2.90
2022-08-12T10:36:02.020Z,2.88
2022-08-12T10:38:38.346Z,3.45
2022-08-12T10:41:57.674Z,3.00
2022-08-12T10:44:16.865Z,3.20
2022-08-12T10:46:49.317Z,3.35
2022-08-12T10:50:04.572Z,2.78
2022-08-12T10:52:34.838Z,2.97
2022-08-12T10:54:56.099Z,3.33
2022-08-12T10:58:15.041Z,3.47
2022-08-12T11:00:31.387Z,3.10
2022-08-12T11:04:28.237Z,2.33
2022-08-12T11:07:05.240Z,2.80
2022-08-12T11:08:43.090Z,3.28
2022-08-12T11:12:08.370Z,3.13
2022-08-12T11:14:09.107Z,3.00
2022-08-12T11:17:33.628Z,3.28
2022-08-12T11:19:33.174Z,2.67
2022-08-12T11:22:03.463Z,2.67
2022-08-12T11:24:32.240Z,3.30
2022-08-12T11:27:07.703Z,2.80
2022-08-12T11:30:05.351Z,2.85
2022-08-12T11:32:25.320Z,3.05
2022-08-12T11:34:54.944Z,3.25
2022-08-12T11:37:25.341Z,3.00
2022-08-12T11:42:46.064Z,2.88
2022-08-12T11:45:17.078Z,2.80
2022-08-12T11:47:44.803Z,2.60
2022-08-12T11:50:19.062Z,2.42
2022-08-12T11:52:56.432Z,2.22
2022-08-12T11:55:25.446Z,2.15
2022-08-12T11:58:47.758Z,2.30
2022-08-12T12:03:43.953Z,2.80
2022-08-12T12:06:17.263Z,1.90
2022-08-12T12:08:52.910Z,2.63
2022-08-12T12:11:21.957Z,2.72
2022-08-12T12:14:07.836Z,2.25
2022-08-12T12:16:38.107Z,2.55
2022-08-12T12:19:10.042Z,2.22
2022-08-12T12:21:47.467Z,2.00
2022-08-12T12:24:21.082Z,2.00
2022-08-12T12:27:00.580Z,1.60
2022-08-12T12:30:19.517Z,1.88
2022-08-12T12:32:28.847Z,1.65
2022-08-12T12:35:13.488Z,1.85
2022-08-12T12:38:05.312Z,1.92
2022-08-12T12:40:41.528Z,2.10
2022-08-12T12:43:12.504Z,2.15
2022-08-12T12:45:44.559Z,2.47
2022-08-12T12:48:18.897Z,1.92
2022-08-12T12:51:12.684Z,2.55
2022-08-12T12:54:07.902Z,1.98
2022-08-12T12:56:35.810Z,2.00
2022-08-12T12:59:06.225Z,1.98
2022-08-12T13:01:38.429Z,1.98
2022-08-12T13:04:12.384Z,2.10
2022-08-12T13:06:42.086Z,2.10
2022-08-12T13:09:13.188Z,2.35
2022-08-12T13:11:42.184Z,1.90
2022-08-12T13:14:29.050Z,2.27
2022-08-12T13:17:03.313Z,1.90
2022-08-12T13:19:38.862Z,1.88
2022-08-12T13:22:20.467Z,2.05
2022-08-12T13:24:55.550Z,2.10
2022-08-12T13:27:35.270Z,2.00
2022-08-12T13:30:11.375Z,2.30
2022-08-12T13:32:56.836Z,2.13
2022-08-12T13:36:06.983Z,2.30
2022-08-12T13:41:11.142Z,2.10
2022-08-12T13:43:41.201Z,2.08
2022-08-12T13:46:12.380Z,2.10
2022-08-12T13:48:44.761Z,2.33
2022-08-12T13:51:14.239Z,1.80
2022-08-12T13:53:58.275Z,2.50
2022-08-12T13:56:35.110Z,1.85
2022-08-12T13:59:07.843Z,1.92
2022-08-12T14:01:40.067Z,1.90
2022-08-12T14:04:12.053Z,2.20
2022-08-12T14:06:40.678Z,2.28
2022-08-12T14:09:17.537Z,2.15
2022-08-12T14:11:58.558Z,1.80
2022-08-12T14:14:31.644Z,1.90
2022-08-12T14:17:05.156Z,1.95
2022-08-12T14:19:37.596Z,2.03
2022-08-12T14:22:10.576Z,2.08
2022-08-12T14:24:40.472Z,2.15
2022-08-12T14:27:11.043Z,1.95
2022-08-12T14:30:05.450Z,2.95
2022-08-12T14:32:36.613Z,2.30
2022-08-12T14:35:09.359Z,2.63
2022-08-12T14:37:56.105Z,2.88
2022-08-12T14:40:29.898Z,2.60
2022-08-12T14:43:00.202Z,1.95
2022-08-12T14:45:45.326Z,2.42
2022-08-12T14:48:18.776Z,2.42
2022-08-12T14:51:03.011Z,2.00
2022-08-12T14:59:56.647Z,2.15
2022-08-12T15:02:20.905Z,1.70
2022-08-12T15:05:03.633Z,1.50
2022-08-12T15:07:43.822Z,2.20
2022-08-12T15:10:31.077Z,2.10
2022-08-12T15:12:59.456Z,2.55
2022-08-12T15:15:26.581Z,2.10
2022-08-12T15:18:02.726Z,2.60
2022-08-12T15:20:37.475Z,1.95
2022-08-12T15:23:18.160Z,2.30
2022-08-12T15:26:02.384Z,2.47
2022-08-12T15:28:35.359Z,2.05
2022-08-12T15:33:45.467Z,2.03
2022-08-12T15:36:19.232Z,2.47
2022-08-12T15:38:47.248Z,2.17
2022-08-12T15:41:16.258Z,2.38
2022-08-12T15:44:15.761Z,2.63
2022-08-12T15:46:32.619Z,2.53
2022-08-12T15:49:00.353Z,2.55
2022-08-12T15:51:58.090Z,2.35
2022-08-12T15:54:35.176Z,2.20
2022-08-12T15:57:10.912Z,2.63
2022-08-12T16:00:00.808Z,2.10
2022-08-12T16:02:41.713Z,2.30
2022-08-12T16:06:13.066Z,2.78
2022-08-12T16:08:17.207Z,2.40
2022-08-12T16:10:46.029Z,2.33
2022-08-12T16:13:32.803Z,2.30
2022-08-12T16:16:12.185Z,2.17
2022-08-12T16:18:51.433Z,2.40
2022-08-12T16:21:52.813Z,2.10
2022-08-12T16:24:08.323Z,2.22
2022-08-12T16:26:40.754Z,2.20
2022-08-12T16:29:14.913Z,2.22
2022-08-12T16:31:44.894Z,2.00
2022-08-12T16:34:41.964Z,1.88
2022-08-12T16:37:13.275Z,2.20
2022-08-12T16:40:01.413Z,2.30
2022-08-12T16:42:31.765Z,2.40
2022-08-12T16:45:02.290Z,2.00
2022-08-12T16:47:57.784Z,1.85
2022-08-12T16:50:19.741Z,2.03
2022-08-12T16:52:50.868Z,2.45
2022-08-12T16:55:18.944Z,2.33
2022-08-12T16:57:50.237Z,2.45
2022-08-12T17:00:21.989Z,2.22
2022-08-12T17:02:58.314Z,2.10
2022-08-12T17:05:31.333Z,2.55
2022-08-12T17:08:00.702Z,2.78
2022-08-12T17:10:36.164Z,2.70
2022-08-12T17:13:09.538Z,2.10
2022-08-12T17:15:57.452Z,2.00
2022-08-12T17:18:43.239Z,3.35
2022-08-12T17:21:19.900Z,2.83
2022-08-12T17:23:53.331Z,2.25
2022-08-12T17:26:30.902Z,2.42
2022-08-12T17:28:59.945Z,2.67
2022-08-12T17:32:01.597Z,3.08
2022-08-12T17:34:36.085Z,3.22
2022-08-12T17:37:07.333Z,3.70
2022-08-12T17:40:13.646Z,4.45
2022-08-12T17:42:34.433Z,3.72
2022-08-12T17:45:18.148Z,3.60
2022-08-12T17:48:00.017Z,3.03
2022-08-12T17:50:33.907Z,3.28
2022-08-12T17:53:02.957Z,2.13
2022-08-12T17:55:40.402Z,2.90
2022-08-12T17:58:13.649Z,2.45
2022-08-12T18:00:45.303Z,2.38
2022-08-12T18:04:04.557Z,2.38
2022-08-12T18:06:08.634Z,2.40
2022-08-12T18:08:54.484Z,2.08
2022-08-12T18:12:06.158Z,2.28
2022-08-12T18:14:31.969Z,3.05
2022-08-12T18:17:01.039Z,2.60
2022-08-12T18:19:34.261Z,2.83
2022-08-12T18:22:21.990Z,2.60
2022-08-12T18:25:02.453Z,2.25
2022-08-12T18:27:43.566Z,3.03
2022-08-12T18:30:16.339Z,2.20
2022-08-12T18:32:58.763Z,2.30
2022-08-12T18:35:47.719Z,2.30
2022-08-12T18:38:25.352Z,2.63
2022-08-12T18:41:21.477Z,2.97
2022-08-12T18:44:00.923Z,2.30
2022-08-12T18:46:37.888Z,2.67
2022-08-12T18:49:18.730Z,1.88
2022-08-12T18:52:02.294Z,2.28
2022-08-12T18:57:01.713Z,2.67
2022-08-12T19:00:02.057Z,2.37
2022-08-12T19:02:22.687Z,2.15
2022-08-12T19:04:54.063Z,2.33
2022-08-12T19:07:29.892Z,2.20
2022-08-12T19:10:15.533Z,1.88
2022-08-12T19:13:01.808Z,1.90
2022-08-12T19:15:30.136Z,2.75
2022-08-12T19:18:01.055Z,2.33
2022-08-12T19:20:31.840Z,2.70
2022-08-12T19:23:02.664Z,2.13
2022-08-12T19:25:59.845Z,1.90
2022-08-12T19:28:34.388Z,2.53
2022-08-12T19:31:56.223Z,2.90
2022-08-12T19:38:04.570Z,2.63
2022-08-12T19:40:31.315Z,2.40
2022-08-12T19:43:19.904Z,2.40
2022-08-12T19:45:57.129Z,2.72
2022-08-12T19:48:30.389Z,2.30
2022-08-12T19:51:08.858Z,2.00
2022-08-12T19:53:57.308Z,2.60
2022-08-12T19:56:29.758Z,2.55
2022-08-12T19:59:19.138Z,2.20
2022-08-12T20:02:02.547Z,2.00
2022-08-12T20:04:32.921Z,2.38
2022-08-12T20:07:00.430Z,2.10
2022-08-12T20:09:36.682Z,2.60
2022-08-12T20:12:10.016Z,2.33
2022-08-12T20:14:48.275Z,2.50
2022-08-12T20:17:16.425Z,2.30
2022-08-12T20:20:16.914Z,2.17
2022-08-12T20:22:43.446Z,2.53
2022-08-12T20:25:14.045Z,2.65
2022-08-12T20:28:04.634Z,2.22
2022-08-12T20:30:37.283Z,2.00
2022-08-12T20:33:19.080Z,2.15
2022-08-12T20:36:12.818Z,1.90
2022-08-12T20:38:39.628Z,2.17
2022-08-12T20:41:18.973Z,2.17
2022-08-12T20:43:57.609Z,2.40
2022-08-12T20:46:31.577Z,2.00
2022-08-12T20:49:14.421Z,1.85
2022-08-12T20:51:55.591Z,2.30
2022-08-12T20:54:32.459Z,2.65
2022-08-12T20:57:09.935Z,2.20
2022-08-12T20:59:41.906Z,2.58
2022-08-12T21:02:16.069Z,2.20
2022-08-12T21:05:01.644Z,2.75
2022-08-12T21:07:40.897Z,2.65
2022-08-12T21:10:20.785Z,2.20
2022-08-12T21:12:49.003Z,2.38
2022-08-12T21:15:22.878Z,2.58
2022-08-12T21:18:11.859Z,2.40
2022-08-12T21:20:52.839Z,2.88
2022-08-12T21:23:22.939Z,1.98
2022-08-12T21:25:56.801Z,2.72
2022-08-12T21:28:31.100Z,2.40
2022-08-12T21:32:34.634Z,2.80
2022-08-12T21:34:07.467Z,2.47
2022-08-12T21:36:48.134Z,2.90
2022-08-12T21:39:35.136Z,3.42
2022-08-12T21:42:06.587Z,2.83
2022-08-12T21:45:46.961Z,2.78
2022-08-12T21:47:24.440Z,2.55
2022-08-12T21:50:02.841Z,2.72
2022-08-12T21:52:40.801Z,2.50
2022-08-12T21:55:18.722Z,2.92
2022-08-12T21:57:54.377Z,4.20
2022-08-12T22:00:35.034Z,2.88
2022-08-12T22:04:10.789Z,2.55
2022-08-12T22:06:20.391Z,2.63
2022-08-12T22:08:57.875Z,2.97
2022-08-12T22:11:42.227Z,3.40
2022-08-12T22:14:21.690Z,3.22
2022-08-12T22:16:54.017Z,2.80
2022-08-12T22:19:23.022Z,3.28
2022-08-12T22:21:54.151Z,3.33
2022-08-12T22:24:25.905Z,2.92
2022-08-12T22:26:55.075Z,3.58
2022-08-12T22:29:40.930Z,3.13
2022-08-12T22:32:11.256Z,3.33
2022-08-12T22:34:39.617Z,2.63
2022-08-12T22:37:11.292Z,2.92
2022-08-12T22:39:46.732Z,3.47
2022-08-12T22:42:35.123Z,3.30
2022-08-12T22:45:23.133Z,3.83
2022-08-12T22:47:56.105Z,3.70
2022-08-12T22:50:28.932Z,3.88
2022-08-12T22:53:17.380Z,3.38
2022-08-12T22:55:59.208Z,3.55
2022-08-12T22:58:31.826Z,4.30
2022-08-12T23:01:02.163Z,3.50
2022-08-12T23:03:49.088Z,3.85
2022-08-12T23:06:24.950Z,3.53
2022-08-12T23:08:54.592Z,3.95
2022-08-12T23:11:23.617Z,3.60
2022-08-12T23:13:57.095Z,3.30
2022-08-12T23:16:31.753Z,3.58
2022-08-12T23:19:10.569Z,3.72
2022-08-12T23:22:05.989Z,4.10
2022-08-12T23:27:50.616Z,3.35
2022-08-12T23:30:31.149Z,4.13
2022-08-12T23:33:01.466Z,3.90
2022-08-12T23:35:53.883Z,4.07
2022-08-12T23:38:30.416Z,4.18
2022-08-12T23:41:01.394Z,3.90
2022-08-12T23:43:48.656Z,3.72
2022-08-12T23:46:25.657Z,4.55
2022-08-12T23:48:59.769Z,4.43
2022-08-12T23:51:32.200Z,3.58
2022-08-12T23:54:07.231Z,4.50
2022-08-12T23:56:43.755Z,4.88
2022-08-12T23:59:11.199Z,4.80
